createdAt,value
2022-10-16T00:01:22.300Z,99.90
2022-10-16T00:03:49.314Z,99.90
2022-10-16T00:06:16.515Z,99.90
2022-10-16T00:08:43.755Z,99.90
2022-10-16T00:11:12.407Z,99.90
2022-10-16T00:13:40.236Z,99.90
2022-10-16T00:16:07.256Z,99.90
2022-10-16T00:18:34.397Z,99.90
2022-10-16T00:21:08.709Z,99.90
2022-10-16T00:23:35.533Z,99.90
2022-10-16T00:26:03.622Z,99.90
2022-10-16T00:28:30.589Z,99.90
2022-10-16T00:30:57.851Z,99.90
2022-10-16T00:33:24.486Z,99.90
2022-10-16T00:35:51.287Z,99.90
2022-10-16T00:38:18.004Z,99.90
2022-10-16T00:40:44.589Z,99.90
2022-10-16T00:43:15.775Z,99.90
2022-10-16T00:45:42.713Z,99.90
2022-10-16T00:48:12.978Z,99.90
2022-10-16T00:50:40.749Z,99.90
2022-10-16T00:53:07.466Z,99.90
2022-10-16T00:55:36.623Z,99.90
2022-10-16T00:58:05.544Z,99.90
2022-10-16T01:00:32.216Z,99.90
2022-10-16T01:02:59.932Z,99.90
2022-10-16T01:05:31.490Z,99.90
2022-10-16T01:08:04.291Z,99.90
2022-10-16T01:10:54.371Z,99.90
2022-10-16T01:13:47.735Z,99.90
2022-10-16T01:16:16.695Z,99.90
2022-10-16T01:19:06.559Z,99.90
2022-10-16T01:21:35.958Z,99.90
2022-10-16T01:24:21.403Z,99.90
2022-10-16T01:27:06.847Z,99.90
2022-10-16T01:29:54.578Z,99.90
2022-10-16T01:32:24.291Z,99.90
2022-10-16T01:34:53.114Z,99.90
2022-10-16T01:37:23.836Z,99.90
2022-10-16T01:39:51.994Z,99.90
2022-10-16T01:42:23.010Z,99.90
2022-10-16T01:44:50.446Z,99.90
2022-10-16T01:47:18.602Z,99.90
2022-10-16T01:49:45.937Z,99.90
2022-10-16T01:52:15.451Z,99.90
2022-10-16T01:54:43.576Z,99.90
2022-10-16T01:57:11.152Z,99.90
2022-10-16T01:59:39.556Z,99.90
2022-10-16T02:02:08.869Z,99.90
2022-10-16T02:04:37.807Z,99.90
2022-10-16T02:07:04.679Z,99.90
2022-10-16T02:09:33.387Z,99.90
2022-10-16T02:12:03.296Z,99.90
2022-10-16T02:14:29.974Z,99.90
2022-10-16T02:16:56.675Z,99.90
2022-10-16T02:19:23.377Z,99.90
2022-10-16T02:22:00.982Z,99.90
2022-10-16T02:24:27.552Z,99.90
2022-10-16T02:27:01.951Z,99.90
2022-10-16T02:29:28.755Z,99.90
2022-10-16T02:31:57.955Z,99.90
2022-10-16T02:34:25.793Z,99.90
2022-10-16T02:36:53.366Z,99.90
2022-10-16T02:39:20.808Z,99.90
2022-10-16T02:41:48.275Z,99.90
2022-10-16T02:44:14.926Z,99.90
2022-10-16T02:46:41.518Z,99.90
2022-10-16T02:49:08.128Z,99.90
2022-10-16T02:51:34.767Z,99.90
2022-10-16T02:54:01.403Z,99.90
2022-10-16T02:56:28.143Z,99.90
2022-10-16T02:58:54.777Z,99.90
2022-10-16T03:01:21.437Z,99.90
2022-10-16T03:03:48.315Z,99.90
2022-10-16T03:06:15.045Z,99.90
2022-10-16T03:08:41.651Z,99.90
2022-10-16T03:11:08.467Z,99.90
2022-10-16T03:13:35.108Z,99.90
2022-10-16T03:16:01.698Z,99.90
2022-10-16T03:18:28.275Z,99.90
2022-10-16T03:20:54.880Z,99.90
2022-10-16T03:23:21.533Z,99.90
2022-10-16T03:25:48.459Z,99.90
2022-10-16T03:28:15.247Z,99.90
2022-10-16T03:30:41.867Z,99.90
2022-10-16T03:33:08.459Z,99.90
2022-10-16T03:35:35.382Z,99.90
2022-10-16T03:38:02.010Z,99.90
2022-10-16T03:40:28.703Z,99.90
2022-10-16T03:42:58.595Z,99.90
2022-10-16T03:45:25.486Z,99.90
2022-10-16T03:47:52.056Z,99.90
2022-10-16T03:50:18.704Z,99.90
2022-10-16T03:52:45.315Z,99.90
2022-10-16T03:55:12.008Z,99.90
2022-10-16T03:57:38.686Z,99.90
2022-10-16T04:00:05.553Z,99.90
2022-10-16T04:02:32.212Z,99.90
2022-10-16T04:04:58.799Z,99.90
2022-10-16T04:07:25.616Z,99.90
2022-10-16T04:09:53.146Z,99.90
2022-10-16T04:12:19.756Z,99.90
2022-10-16T04:14:46.347Z,99.90
2022-10-16T04:17:12.930Z,99.90
2022-10-16T04:19:39.519Z,99.90
2022-10-16T04:22:06.115Z,99.90
2022-10-16T04:24:32.730Z,99.90
2022-10-16T04:26:59.471Z,99.90
2022-10-16T04:29:26.194Z,99.90
2022-10-16T04:31:52.872Z,99.90
2022-10-16T04:34:19.499Z,99.90
2022-10-16T04:36:48.213Z,99.90
2022-10-16T04:39:14.820Z,99.90
2022-10-16T04:41:41.456Z,99.90
2022-10-16T04:44:08.137Z,99.90
2022-10-16T04:46:34.922Z,99.90
2022-10-16T04:49:01.614Z,99.90
2022-10-16T04:51:28.707Z,99.90
2022-10-16T04:53:55.962Z,99.90
2022-10-16T04:56:22.864Z,99.90
2022-10-16T04:58:49.509Z,99.90
2022-10-16T05:01:16.268Z,99.90
2022-10-16T05:03:42.862Z,99.90
2022-10-16T05:06:09.495Z,99.90
2022-10-16T05:08:36.124Z,99.90
2022-10-16T05:11:02.903Z,99.90
2022-10-16T05:13:29.492Z,99.90
2022-10-16T05:15:56.104Z,99.90
2022-10-16T05:18:22.665Z,99.90
2022-10-16T05:20:49.286Z,99.90
2022-10-16T05:23:15.876Z,99.90
2022-10-16T05:25:42.495Z,99.90
2022-10-16T05:28:09.097Z,99.90
2022-10-16T05:30:38.006Z,99.90
2022-10-16T05:33:04.583Z,99.90
2022-10-16T05:35:31.406Z,99.90
2022-10-16T05:37:57.993Z,99.90
2022-10-16T05:40:24.702Z,99.90
2022-10-16T05:42:55.202Z,99.90
2022-10-16T05:45:21.794Z,99.90
2022-10-16T05:47:48.395Z,99.90
2022-10-16T05:50:15.135Z,99.90
2022-10-16T05:52:41.721Z,99.90
2022-10-16T05:55:08.568Z,99.90
2022-10-16T05:57:35.175Z,99.90
2022-10-16T06:00:01.906Z,99.90
2022-10-16T06:02:28.546Z,99.90
2022-10-16T06:04:55.187Z,99.90
2022-10-16T06:07:22.087Z,99.90
2022-10-16T06:09:49.482Z,99.90
2022-10-16T06:12:16.446Z,99.90
2022-10-16T06:17:09.764Z,99.90
2022-10-16T06:19:36.362Z,99.90
2022-10-16T06:22:03.668Z,99.90
2022-10-16T06:24:30.263Z,99.90
2022-10-16T06:26:56.881Z,99.90
2022-10-16T06:29:23.504Z,99.90
2022-10-16T06:31:50.114Z,99.90
2022-10-16T06:34:16.822Z,99.90
2022-10-16T06:36:44.387Z,99.90
2022-10-16T06:39:11.011Z,99.90
2022-10-16T06:41:37.708Z,99.90
2022-10-16T06:44:06.332Z,99.90
2022-10-16T06:46:33.066Z,99.90
2022-10-16T06:48:59.657Z,99.90
2022-10-16T06:51:26.420Z,99.90
2022-10-16T06:54:03.298Z,99.90
2022-10-16T06:56:32.260Z,99.90
2022-10-16T06:58:59.502Z,99.90
2022-10-16T07:01:26.408Z,99.90
2022-10-16T07:03:53.431Z,99.90
2022-10-16T07:06:21.723Z,99.90
2022-10-16T07:08:48.595Z,99.90
2022-10-16T07:11:16.403Z,99.90
2022-10-16T07:13:44.203Z,99.90
2022-10-16T07:16:10.797Z,99.90
2022-10-16T07:18:37.877Z,99.90
2022-10-16T07:21:14.668Z,99.90
2022-10-16T07:23:41.357Z,99.90
2022-10-16T07:26:10.492Z,99.90
2022-10-16T07:28:37.534Z,99.90
2022-10-16T07:31:05.574Z,99.90
2022-10-16T07:33:32.575Z,99.90
2022-10-16T07:35:59.295Z,99.90
2022-10-16T07:38:25.892Z,99.90
2022-10-16T07:41:03.102Z,99.90
2022-10-16T07:43:29.748Z,99.90
2022-10-16T07:45:58.215Z,99.90
2022-10-16T07:48:31.067Z,99.90
2022-10-16T07:50:58.621Z,99.90
2022-10-16T07:53:27.039Z,99.90
2022-10-16T07:55:53.741Z,99.90
2022-10-16T07:58:20.396Z,99.90
2022-10-16T08:00:46.980Z,99.90
2022-10-16T08:03:13.579Z,99.90
2022-10-16T08:05:40.183Z,99.90
2022-10-16T08:08:06.896Z,99.90
2022-10-16T08:10:33.538Z,99.90
2022-10-16T08:13:00.262Z,99.90
2022-10-16T08:15:26.945Z,99.90
2022-10-16T08:18:00.826Z,99.90
2022-10-16T08:20:27.847Z,99.90
2022-10-16T08:22:55.294Z,99.90
2022-10-16T08:25:25.107Z,99.90
2022-10-16T08:27:52.091Z,99.90
2022-10-16T08:30:19.595Z,99.90
2022-10-16T08:32:46.211Z,99.90
2022-10-16T08:35:13.359Z,99.90
2022-10-16T08:37:40.015Z,99.90
2022-10-16T08:40:07.650Z,99.90
2022-10-16T08:42:47.096Z,99.90
2022-10-16T08:45:16.877Z,99.90
2022-10-16T08:48:06.743Z,99.90
2022-10-16T08:50:36.671Z,98.70
2022-10-16T08:53:04.844Z,89.90
2022-10-16T08:55:35.169Z,77.50
2022-10-16T08:58:02.139Z,66.60
2022-10-16T09:00:29.112Z,60.00
2022-10-16T09:03:06.939Z,55.00
2022-10-16T09:05:52.502Z,52.80
2022-10-16T09:08:26.056Z,46.60
2022-10-16T09:11:06.145Z,44.20
2022-10-16T09:13:45.082Z,42.00
2022-10-16T09:16:18.387Z,40.20
2022-10-16T09:18:44.951Z,39.60
2022-10-16T09:21:17.723Z,39.40
2022-10-16T09:23:44.454Z,41.40
2022-10-16T09:26:13.343Z,45.90
2022-10-16T09:31:18.790Z,51.30
2022-10-16T09:33:46.463Z,55.40
2022-10-16T09:36:14.035Z,58.10
2022-10-16T09:38:40.851Z,58.90
2022-10-16T09:41:16.794Z,61.20
2022-10-16T09:43:49.186Z,62.20
2022-10-16T09:46:35.598Z,64.40
2022-10-16T09:49:04.027Z,68.00
2022-10-16T09:51:36.291Z,67.90
2022-10-16T09:54:08.905Z,70.40
2022-10-16T09:56:37.316Z,72.10
2022-10-16T09:59:09.856Z,71.50
2022-10-16T10:01:40.972Z,72.00
2022-10-16T10:04:08.159Z,72.90
2022-10-16T10:06:41.891Z,75.40
2022-10-16T10:09:25.290Z,75.80
2022-10-16T10:11:51.935Z,75.50
2022-10-16T10:14:24.535Z,75.80
2022-10-16T10:16:52.419Z,74.00
2022-10-16T10:19:20.608Z,73.90
2022-10-16T10:21:47.596Z,75.30
2022-10-16T10:24:15.111Z,76.10
2022-10-16T10:26:48.527Z,75.70
2022-10-16T10:29:15.241Z,75.20
2022-10-16T10:31:48.079Z,76.00
2022-10-16T10:34:17.712Z,75.60
2022-10-16T10:36:48.060Z,73.70
2022-10-16T10:39:23.265Z,75.70
2022-10-16T10:41:59.124Z,75.70
2022-10-16T10:44:28.948Z,77.60
2022-10-16T10:46:58.078Z,75.80
2022-10-16T10:49:45.415Z,76.80
2022-10-16T10:52:27.051Z,76.90
2022-10-16T10:55:10.086Z,78.90
2022-10-16T10:57:42.264Z,75.90
2022-10-16T11:00:12.048Z,75.20
2022-10-16T11:02:41.512Z,74.80
2022-10-16T11:05:16.767Z,74.80
2022-10-16T11:07:49.144Z,73.00
2022-10-16T11:10:19.703Z,72.10
2022-10-16T11:12:48.642Z,74.30
2022-10-16T11:15:20.806Z,75.70
2022-10-16T11:17:53.574Z,71.10
2022-10-16T11:20:26.459Z,68.80
2022-10-16T11:22:58.933Z,69.60
2022-10-16T11:25:27.811Z,70.20
2022-10-16T11:27:57.539Z,70.50
2022-10-16T11:30:28.169Z,71.30
2022-10-16T11:33:15.044Z,68.10
2022-10-16T11:35:48.489Z,70.00
2022-10-16T11:38:50.719Z,67.30
2022-10-16T11:41:23.391Z,67.00
2022-10-16T11:44:05.029Z,67.00
2022-10-16T11:46:33.577Z,65.90
2022-10-16T11:49:13.836Z,68.30
2022-10-16T11:51:46.247Z,66.20
2022-10-16T11:54:22.495Z,63.70
2022-10-16T11:56:51.139Z,66.60
2022-10-16T11:59:25.305Z,65.50
2022-10-16T12:01:56.074Z,66.40
2022-10-16T12:04:34.994Z,64.60
2022-10-16T12:07:08.147Z,64.20
2022-10-16T12:09:37.518Z,64.00
2022-10-16T12:12:04.243Z,64.20
2022-10-16T12:14:51.702Z,63.60
2022-10-16T12:17:28.179Z,64.00
2022-10-16T12:20:02.314Z,66.80
2022-10-16T12:22:32.731Z,64.00
2022-10-16T12:24:59.452Z,63.10
2022-10-16T12:27:33.052Z,63.10
2022-10-16T12:30:01.512Z,65.80
2022-10-16T12:32:46.320Z,65.20
2022-10-16T12:35:24.673Z,64.00
2022-10-16T12:37:51.791Z,64.20
2022-10-16T12:40:24.722Z,62.70
2022-10-16T12:42:51.446Z,63.70
2022-10-16T12:45:27.182Z,63.80
2022-10-16T12:47:55.131Z,64.30
2022-10-16T12:50:24.735Z,64.00
2022-10-16T12:52:51.323Z,64.90
2022-10-16T12:55:18.997Z,63.60
2022-10-16T12:58:04.443Z,63.40
2022-10-16T13:00:42.180Z,65.40
2022-10-16T13:03:24.491Z,65.20
2022-10-16T13:05:58.988Z,64.70
2022-10-16T13:08:28.457Z,63.30
2022-10-16T13:10:58.059Z,65.20
2022-10-16T13:13:33.935Z,64.70
2022-10-16T13:16:15.899Z,65.80
2022-10-16T13:18:42.466Z,67.90
2022-10-16T13:21:19.372Z,69.30
2022-10-16T13:24:03.362Z,67.30
2022-10-16T13:26:37.829Z,66.90
2022-10-16T13:29:05.007Z,66.30
2022-10-16T13:31:32.158Z,65.60
2022-10-16T13:34:00.207Z,66.40
2022-10-16T13:36:31.459Z,65.90
2022-10-16T13:39:04.843Z,67.00
2022-10-16T13:41:31.532Z,63.70
2022-10-16T13:43:58.423Z,64.00
2022-10-16T13:46:25.703Z,64.00
2022-10-16T13:48:59.217Z,64.20
2022-10-16T13:51:25.828Z,65.60
2022-10-16T13:53:52.609Z,65.40
2022-10-16T13:56:20.673Z,66.50
2022-10-16T13:58:48.188Z,64.80
2022-10-16T14:01:14.771Z,63.40
2022-10-16T14:03:42.356Z,65.00
2022-10-16T14:06:14.560Z,65.60
2022-10-16T14:08:43.381Z,65.30
2022-10-16T14:11:10.260Z,65.00
2022-10-16T14:13:39.975Z,65.10
2022-10-16T14:16:10.961Z,62.60
2022-10-16T14:18:39.603Z,62.20
2022-10-16T14:21:13.605Z,63.50
2022-10-16T14:23:40.675Z,62.20
2022-10-16T14:26:15.848Z,62.40
2022-10-16T14:28:43.549Z,62.00
2022-10-16T14:31:24.777Z,61.70
2022-10-16T14:33:51.480Z,64.10
2022-10-16T14:36:19.555Z,64.70
2022-10-16T14:38:54.723Z,64.20
2022-10-16T14:41:22.636Z,62.40
2022-10-16T14:43:52.490Z,63.90
2022-10-16T14:48:50.684Z,62.90
2022-10-16T14:51:18.508Z,63.60
2022-10-16T14:53:45.244Z,64.30
2022-10-16T14:56:22.355Z,66.00
2022-10-16T14:58:50.616Z,66.20
2022-10-16T15:01:17.531Z,66.40
2022-10-16T15:03:44.351Z,67.90
2022-10-16T15:06:14.864Z,67.20
2022-10-16T15:08:41.783Z,68.50
2022-10-16T15:11:16.016Z,69.80
2022-10-16T15:13:42.667Z,70.20
2022-10-16T15:16:11.938Z,71.50
2022-10-16T15:18:38.546Z,73.10
2022-10-16T15:21:05.553Z,75.00
2022-10-16T15:23:32.159Z,77.40
2022-10-16T15:25:58.934Z,79.60
2022-10-16T15:28:26.690Z,79.70
2022-10-16T15:30:54.410Z,81.30
2022-10-16T15:33:23.560Z,82.40
2022-10-16T15:35:51.143Z,82.90
2022-10-16T15:38:18.370Z,83.60
2022-10-16T15:40:45.349Z,85.30
2022-10-16T15:43:12.574Z,86.00
2022-10-16T15:45:39.243Z,86.80
2022-10-16T15:48:05.894Z,85.30
2022-10-16T15:50:33.158Z,83.90
2022-10-16T15:52:59.804Z,84.80
2022-10-16T15:55:26.619Z,84.60
2022-10-16T15:57:53.212Z,83.70
2022-10-16T16:00:24.879Z,83.90
2022-10-16T16:02:52.944Z,84.10
2022-10-16T16:05:20.142Z,85.10
2022-10-16T16:07:46.764Z,85.30
2022-10-16T16:10:14.047Z,84.90
2022-10-16T16:12:40.705Z,87.30
2022-10-16T16:15:07.982Z,88.00
2022-10-16T16:17:35.407Z,89.50
2022-10-16T16:20:02.159Z,90.30
2022-10-16T16:22:29.241Z,90.80
2022-10-16T16:24:56.102Z,91.10
2022-10-16T16:27:22.804Z,91.70
2022-10-16T16:29:49.432Z,91.70
2022-10-16T16:32:16.009Z,91.90
2022-10-16T16:34:42.677Z,92.70
2022-10-16T16:37:09.265Z,94.00
2022-10-16T16:39:35.900Z,94.80
2022-10-16T16:42:04.977Z,95.30
2022-10-16T16:44:31.786Z,95.70
2022-10-16T16:46:58.439Z,96.80
2022-10-16T16:49:25.064Z,97.50
2022-10-16T16:51:53.119Z,98.60
2022-10-16T16:54:19.827Z,99.40
2022-10-16T16:56:46.813Z,99.90
2022-10-16T16:59:14.748Z,99.90
2022-10-16T17:01:41.870Z,99.90
2022-10-16T17:04:08.995Z,99.90
2022-10-16T17:06:35.659Z,99.90
2022-10-16T17:09:03.724Z,99.90
2022-10-16T17:11:30.551Z,99.90
2022-10-16T17:13:58.238Z,99.90
2022-10-16T17:16:26.477Z,99.90
2022-10-16T17:18:54.085Z,99.90
2022-10-16T17:21:20.781Z,99.90
2022-10-16T17:23:47.405Z,99.90
2022-10-16T17:26:17.939Z,99.90
2022-10-16T17:28:44.717Z,99.90
2022-10-16T17:31:12.733Z,99.90
2022-10-16T17:33:39.362Z,99.90
2022-10-16T17:36:06.355Z,99.90
2022-10-16T17:38:33.017Z,99.90
2022-10-16T17:40:59.660Z,99.90
2022-10-16T17:43:26.311Z,99.90
2022-10-16T17:45:52.992Z,99.90
2022-10-16T17:48:19.580Z,99.90
2022-10-16T17:50:46.193Z,99.90
2022-10-16T17:53:12.783Z,99.90
2022-10-16T17:55:40.472Z,99.90
2022-10-16T17:58:07.320Z,99.90
2022-10-16T18:00:34.051Z,99.90
2022-10-16T18:03:00.652Z,99.90
2022-10-16T18:05:27.335Z,99.90
2022-10-16T18:07:53.941Z,99.90
2022-10-16T18:10:21.316Z,99.90
2022-10-16T18:12:48.028Z,99.90
2022-10-16T18:15:14.649Z,99.90
2022-10-16T18:17:41.323Z,99.90
2022-10-16T18:20:08.199Z,99.90
2022-10-16T18:22:38.170Z,99.90
2022-10-16T18:25:05.465Z,99.90
2022-10-16T18:27:32.360Z,99.90
2022-10-16T18:30:00.006Z,99.90
2022-10-16T18:32:27.483Z,99.90
2022-10-16T18:34:54.539Z,99.90
2022-10-16T18:37:21.536Z,99.90
2022-10-16T18:39:51.092Z,99.90
2022-10-16T18:42:18.081Z,99.90
2022-10-16T18:44:46.911Z,99.90
2022-10-16T18:47:15.701Z,99.90
2022-10-16T18:49:44.114Z,99.90
2022-10-16T18:52:10.690Z,99.90
2022-10-16T18:54:37.589Z,99.90
2022-10-16T18:57:04.463Z,99.90
2022-10-16T18:59:31.132Z,99.90
2022-10-16T19:01:58.099Z,99.90
2022-10-16T19:04:24.963Z,99.90
2022-10-16T19:06:53.895Z,99.90
2022-10-16T19:09:22.155Z,99.90
2022-10-16T19:11:49.141Z,99.90
2022-10-16T19:14:16.660Z,99.90
2022-10-16T19:16:43.616Z,99.90
2022-10-16T19:19:11.947Z,99.90
2022-10-16T19:21:41.629Z,99.90
2022-10-16T19:24:09.041Z,99.90
2022-10-16T19:26:38.112Z,99.90
2022-10-16T19:29:08.203Z,99.90
2022-10-16T19:31:34.849Z,99.90
2022-10-16T19:34:03.352Z,99.90
2022-10-16T19:36:37.348Z,99.90
2022-10-16T19:39:05.772Z,99.90
2022-10-16T19:41:32.547Z,99.90
2022-10-16T19:44:02.551Z,99.90
2022-10-16T19:46:29.962Z,99.90
2022-10-16T19:49:01.321Z,99.90
2022-10-16T19:51:28.751Z,99.90
2022-10-16T19:53:59.375Z,99.90
2022-10-16T19:56:26.587Z,99.90
2022-10-16T19:58:54.847Z,99.90
2022-10-16T20:01:22.330Z,99.90
2022-10-16T20:03:50.220Z,99.90
2022-10-16T20:06:17.304Z,99.90
2022-10-16T20:08:45.696Z,99.90
2022-10-16T20:11:13.414Z,99.90
2022-10-16T20:13:42.365Z,99.90
2022-10-16T20:16:09.896Z,99.90
2022-10-16T20:18:36.688Z,99.90
2022-10-16T20:21:08.486Z,99.90
2022-10-16T20:23:35.080Z,99.90
2022-10-16T20:26:04.056Z,99.90
2022-10-16T20:28:31.486Z,99.90
2022-10-16T20:30:58.287Z,99.90
2022-10-16T20:33:24.903Z,99.90
2022-10-16T20:35:51.617Z,99.90
2022-10-16T20:38:18.712Z,99.90
2022-10-16T20:40:46.393Z,99.90
2022-10-16T20:43:14.572Z,99.90
2022-10-16T20:45:41.360Z,99.90
2022-10-16T20:48:08.083Z,99.90
2022-10-16T20:50:34.792Z,99.90
2022-10-16T20:53:01.523Z,99.90
2022-10-16T20:55:28.227Z,99.90
2022-10-16T20:57:54.968Z,99.90
2022-10-16T21:00:21.796Z,99.90
2022-10-16T21:02:51.754Z,99.90
2022-10-16T21:05:18.918Z,99.90
2022-10-16T21:07:45.523Z,99.90
2022-10-16T21:10:12.359Z,99.90
2022-10-16T21:12:39.047Z,99.90
2022-10-16T21:15:20.495Z,99.90
2022-10-16T21:17:47.202Z,99.90
2022-10-16T21:20:13.838Z,99.90
2022-10-16T21:22:40.418Z,99.90
2022-10-16T21:25:07.220Z,99.90
2022-10-16T21:27:40.595Z,99.90
2022-10-16T21:30:08.236Z,99.90
2022-10-16T21:32:35.774Z,99.90
2022-10-16T21:35:02.395Z,99.90
2022-10-16T21:37:29.048Z,99.90
2022-10-16T21:39:56.282Z,99.90
2022-10-16T21:42:22.962Z,99.90
2022-10-16T21:44:49.611Z,99.90
2022-10-16T21:47:16.236Z,99.90
2022-10-16T21:49:42.854Z,99.90
2022-10-16T21:52:09.585Z,99.90
2022-10-16T21:54:36.185Z,99.90
2022-10-16T21:59:29.408Z,99.90
2022-10-16T22:01:56.752Z,99.90
2022-10-16T22:04:23.412Z,99.90
2022-10-16T22:06:50.079Z,99.90
2022-10-16T22:09:16.827Z,99.90
2022-10-16T22:11:44.273Z,99.90
2022-10-16T22:14:12.228Z,99.90
2022-10-16T22:16:38.997Z,99.90
2022-10-16T22:19:09.025Z,99.90
2022-10-16T22:21:37.210Z,99.90
2022-10-16T22:24:03.959Z,99.90
2022-10-16T22:26:30.702Z,99.90
2022-10-16T22:28:57.468Z,99.90
2022-10-16T22:31:24.176Z,99.90
2022-10-16T22:33:55.165Z,99.90
2022-10-16T22:36:21.884Z,99.90
2022-10-16T22:38:48.515Z,99.90
2022-10-16T22:41:15.395Z,99.90
2022-10-16T22:43:44.007Z,99.90
2022-10-16T22:46:15.262Z,99.90
2022-10-16T22:48:42.052Z,99.90
2022-10-16T22:51:09.518Z,99.90
2022-10-16T22:53:36.296Z,99.90
2022-10-16T22:56:03.404Z,99.90
2022-10-16T22:58:30.069Z,99.90
2022-10-16T23:03:23.488Z,99.90
2022-10-16T23:05:50.203Z,99.90
2022-10-16T23:08:17.064Z,99.90
2022-10-16T23:10:44.998Z,99.90
2022-10-16T23:13:12.189Z,99.90
2022-10-16T23:15:39.405Z,99.90
2022-10-16T23:18:06.119Z,99.90
2022-10-16T23:20:32.828Z,99.90
2022-10-16T23:22:59.455Z,99.90
2022-10-16T23:25:26.123Z,99.90
2022-10-16T23:27:55.875Z,99.90
2022-10-16T23:30:22.671Z,99.90
2022-10-16T23:32:49.808Z,99.90
2022-10-16T23:35:16.522Z,99.90
2022-10-16T23:37:43.181Z,99.90
2022-10-16T23:40:10.105Z,99.90
2022-10-16T23:42:36.756Z,99.90
2022-10-16T23:45:03.538Z,99.90
2022-10-16T23:47:30.379Z,99.90
2022-10-16T23:49:57.156Z,99.90
2022-10-16T23:52:23.764Z,99.90
2022-10-16T23:54:50.420Z,99.90
2022-10-16T23:57:17.039Z,99.90
2022-10-16T23:59:43.643Z,99.90
